sensor_id;sensor_type;location;lat;lon;timestamp;P1;durP1;ratioP1;P2;durP2;ratioP2
45893;SDS011;31603;51.148;16.932;2023-01-04T09:38:30;15.75;;;7.78;;
45893;SDS011;31603;51.148;16.932;2023-01-04T13:22:11;5.15;;;2.40;;
45893;SDS011;31603;51.148;16.932;2023-01-04T13:34:34;3.95;;;2.35;;
45893;SDS011;31603;51.148;16.932;2023-01-04T13:49:49;4.25;;;2.28;;
45893;SDS011;31603;51.148;16.932;2023-01-04T14:01:23;6.28;;;2.35;;
45893;SDS011;31603;51.148;16.932;2023-01-04T14:07:17;5.53;;;3.08;;
45893;SDS011;31603;51.148;16.932;2023-01-04T14:10:12;7.75;;;4.03;;
45893;SDS011;31603;51.148;16.932;2023-01-04T14:12:54;5.55;;;3.60;;
45893;SDS011;31603;51.148;16.932;2023-01-04T14:15:46;9.98;;;4.43;;
45893;SDS011;31603;51.148;16.932;2023-01-04T14:18:58;5.60;;;3.17;;
45893;SDS011;31603;51.148;16.932;2023-01-04T14:25:49;4.50;;;2.67;;
45893;SDS011;31603;51.148;16.932;2023-01-04T14:28:50;8.07;;;3.58;;
45893;SDS011;31603;51.148;16.932;2023-01-04T14:34:10;8.63;;;4.43;;
45893;SDS011;31603;51.148;16.932;2023-01-04T14:35:17;14.90;;;5.82;;
45893;SDS011;31603;51.148;16.932;2023-01-04T14:38:10;14.48;;;5.68;;
45893;SDS011;31603;51.148;16.932;2023-01-04T14:41:11;7.57;;;3.95;;
45893;SDS011;31603;51.148;16.932;2023-01-04T14:46:58;5.70;;;3.20;;
45893;SDS011;31603;51.148;16.932;2023-01-04T14:49:40;8.43;;;3.67;;
45893;SDS011;31603;51.148;16.932;2023-01-04T14:58:41;6.72;;;3.60;;
45893;SDS011;31603;51.148;16.932;2023-01-04T15:04:47;7.50;;;4.53;;
45893;SDS011;31603;51.148;16.932;2023-01-04T15:07:32;8.77;;;4.32;;
45893;SDS011;31603;51.148;16.932;2023-01-04T15:10:33;7.03;;;4.43;;
45893;SDS011;31603;51.148;16.932;2023-01-04T15:16:17;6.75;;;4.30;;
45893;SDS011;31603;51.148;16.932;2023-01-04T15:19:17;6.78;;;4.55;;
45893;SDS011;31603;51.148;16.932;2023-01-04T15:22:09;8.70;;;5.45;;
45893;SDS011;31603;51.148;16.932;2023-01-04T15:25:39;9.20;;;5.18;;
45893;SDS011;31603;51.148;16.932;2023-01-04T15:38:16;7.20;;;4.50;;
45893;SDS011;31603;51.148;16.932;2023-01-04T15:41:41;9.00;;;4.72;;
45893;SDS011;31603;51.148;16.932;2023-01-04T16:25:07;9.10;;;4.28;;
45893;SDS011;31603;51.148;16.932;2023-01-04T16:28:18;7.28;;;4.25;;
45893;SDS011;31603;51.148;16.932;2023-01-04T16:31:12;6.13;;;4.22;;
45893;SDS011;31603;51.148;16.932;2023-01-04T16:34:08;5.45;;;3.65;;
45893;SDS011;31603;51.148;16.932;2023-01-04T16:37:34;6.93;;;4.18;;
45893;SDS011;31603;51.148;16.932;2023-01-04T16:40:02;6.43;;;4.75;;
45893;SDS011;31603;51.148;16.932;2023-01-04T16:43:06;5.95;;;3.90;;
45893;SDS011;31603;51.148;16.932;2023-01-04T16:45:37;8.48;;;4.93;;
45893;SDS011;31603;51.148;16.932;2023-01-04T16:48:05;8.38;;;5.28;;
45893;SDS011;31603;51.148;16.932;2023-01-04T16:50:31;8.73;;;5.28;;
45893;SDS011;31603;51.148;16.932;2023-01-04T16:53:03;9.40;;;5.80;;
45893;SDS011;31603;51.148;16.932;2023-01-04T16:58:23;11.18;;;6.50;;
45893;SDS011;31603;51.148;16.932;2023-01-04T17:01:08;10.35;;;7.03;;
45893;SDS011;31603;51.148;16.932;2023-01-04T17:04:02;8.50;;;5.78;;
45893;SDS011;31603;51.148;16.932;2023-01-04T17:06:42;9.57;;;5.72;;
45893;SDS011;31603;51.148;16.932;2023-01-04T17:09:11;7.97;;;5.30;;
45893;SDS011;31603;51.148;16.932;2023-01-04T17:12:06;8.38;;;5.72;;
45893;SDS011;31603;51.148;16.932;2023-01-04T17:14:54;8.38;;;6.03;;
45893;SDS011;31603;51.148;16.932;2023-01-04T17:17:48;8.93;;;6.22;;
45893;SDS011;31603;51.148;16.932;2023-01-04T17:20:14;9.50;;;6.50;;
45893;SDS011;31603;51.148;16.932;2023-01-04T17:23:13;9.40;;;5.93;;
45893;SDS011;31603;51.148;16.932;2023-01-04T17:25:43;10.57;;;6.85;;
45893;SDS011;31603;51.148;16.932;2023-01-04T17:31:10;7.43;;;5.57;;
45893;SDS011;31603;51.148;16.932;2023-01-04T17:33:40;8.52;;;6.20;;
45893;SDS011;31603;51.148;16.932;2023-01-04T17:39:39;8.05;;;5.30;;
45893;SDS011;31603;51.148;16.932;2023-01-04T17:42:27;9.93;;;6.53;;
45893;SDS011;31603;51.148;16.932;2023-01-04T17:51:54;8.85;;;6.00;;
45893;SDS011;31603;51.148;16.932;2023-01-04T17:54:21;9.77;;;6.30;;
45893;SDS011;31603;51.148;16.932;2023-01-04T17:57:08;12.32;;;6.70;;
45893;SDS011;31603;51.148;16.932;2023-01-04T18:00:12;11.13;;;6.72;;
45893;SDS011;31603;51.148;16.932;2023-01-04T18:02:51;12.68;;;6.90;;
45893;SDS011;31603;51.148;16.932;2023-01-04T18:05:30;12.52;;;7.75;;
45893;SDS011;31603;51.148;16.932;2023-01-04T18:08:08;12.45;;;6.57;;
45893;SDS011;31603;51.148;16.932;2023-01-04T18:10:41;10.30;;;7.28;;
45893;SDS011;31603;51.148;16.932;2023-01-04T18:13:41;10.60;;;6.85;;
45893;SDS011;31603;51.148;16.932;2023-01-04T18:16:11;10.30;;;6.60;;
45893;SDS011;31603;51.148;16.932;2023-01-04T18:19:20;9.13;;;5.55;;
45893;SDS011;31603;51.148;16.932;2023-01-04T18:22:28;8.10;;;5.85;;
45893;SDS011;31603;51.148;16.932;2023-01-04T18:28:21;8.07;;;5.03;;
45893;SDS011;31603;51.148;16.932;2023-01-04T18:34:45;6.80;;;4.32;;
45893;SDS011;31603;51.148;16.932;2023-01-04T18:46:05;6.32;;;4.13;;
45893;SDS011;31603;51.148;16.932;2023-01-04T18:49:42;7.35;;;4.82;;
45893;SDS011;31603;51.148;16.932;2023-01-04T19:25:47;5.72;;;2.90;;
45893;SDS011;31603;51.148;16.932;2023-01-04T19:28:16;4.53;;;2.83;;
45893;SDS011;31603;51.148;16.932;2023-01-04T19:33:41;3.97;;;2.55;;
45893;SDS011;31603;51.148;16.932;2023-01-04T19:37:26;3.22;;;2.00;;
45893;SDS011;31603;51.148;16.932;2023-01-04T19:39:15;4.18;;;2.05;;
45893;SDS011;31603;51.148;16.932;2023-01-04T19:42:13;5.28;;;2.85;;
45893;SDS011;31603;51.148;16.932;2023-01-04T19:44:45;5.20;;;2.22;;
45893;SDS011;31603;51.148;16.932;2023-01-04T19:47:42;4.18;;;2.40;;
45893;SDS011;31603;51.148;16.932;2023-01-04T21:34:43;4.90;;;2.50;;
45893;SDS011;31603;51.148;16.932;2023-01-04T21:37:36;7.93;;;2.63;;
45893;SDS011;31603;51.148;16.932;2023-01-04T21:40:18;5.18;;;2.58;;
45893;SDS011;31603;51.148;16.932;2023-01-04T22:07:11;4.45;;;2.10;;
45893;SDS011;31603;51.148;16.932;2023-01-04T22:19:37;5.05;;;2.30;;
45893;SDS011;31603;51.148;16.932;2023-01-04T22:22:14;5.00;;;2.17;;
45893;SDS011;31603;51.148;16.932;2023-01-04T22:24:45;4.18;;;2.25;;
45893;SDS011;31603;51.148;16.932;2023-01-04T22:27:15;3.17;;;1.92;;
45893;SDS011;31603;51.148;16.932;2023-01-04T22:30:21;3.55;;;1.83;;
45893;SDS011;31603;51.148;16.932;2023-01-04T22:33:23;3.63;;;1.88;;
45893;SDS011;31603;51.148;16.932;2023-01-04T22:36:08;4.63;;;2.05;;
45893;SDS011;31603;51.148;16.932;2023-01-04T22:40:00;3.15;;;2.13;;
45893;SDS011;31603;51.148;16.932;2023-01-04T22:41:46;5.28;;;2.50;;
45893;SDS011;31603;51.148;16.932;2023-01-04T22:44:15;3.60;;;1.75;;
45893;SDS011;31603;51.148;16.932;2023-01-04T22:46:42;3.72;;;2.00;;
45893;SDS011;31603;51.148;16.932;2023-01-04T22:49:09;3.05;;;1.67;;
45893;SDS011;31603;51.148;16.932;2023-01-04T22:55:08;2.55;;;1.60;;
45893;SDS011;31603;51.148;16.932;2023-01-04T22:57:35;2.45;;;1.35;;
45893;SDS011;31603;51.148;16.932;2023-01-04T23:00:02;3.80;;;1.85;;
45893;SDS011;31603;51.148;16.932;2023-01-04T23:02:49;2.90;;;1.60;;
45893;SDS011;31603;51.148;16.932;2023-01-04T23:05:34;2.65;;;1.70;;
45893;SDS011;31603;51.148;16.932;2023-01-04T23:08:07;2.88;;;1.15;;
45893;SDS011;31603;51.148;16.932;2023-01-04T23:11:06;4.32;;;1.30;;
45893;SDS011;31603;51.148;16.932;2023-01-04T23:13:44;3.50;;;1.40;;
45893;SDS011;31603;51.148;16.932;2023-01-04T23:16:14;3.65;;;1.30;;
45893;SDS011;31603;51.148;16.932;2023-01-04T23:18:50;2.40;;;1.20;;
45893;SDS011;31603;51.148;16.932;2023-01-04T23:21:31;1.52;;;0.90;;
45893;SDS011;31603;51.148;16.932;2023-01-04T23:24:05;3.42;;;1.20;;
45893;SDS011;31603;51.148;16.932;2023-01-04T23:26:40;2.55;;;1.20;;
45893;SDS011;31603;51.148;16.932;2023-01-04T23:29:12;3.17;;;1.17;;
45893;SDS011;31603;51.148;16.932;2023-01-04T23:31:49;3.28;;;1.10;;
45893;SDS011;31603;51.148;16.932;2023-01-04T23:34:16;1.30;;;0.65;;
45893;SDS011;31603;51.148;16.932;2023-01-04T23:40:02;2.25;;;0.90;;
45893;SDS011;31603;51.148;16.932;2023-01-04T23:42:43;3.22;;;0.65;;
45893;SDS011;31603;51.148;16.932;2023-01-04T23:45:11;2.88;;;0.65;;
45893;SDS011;31603;51.148;16.932;2023-01-04T23:47:40;2.22;;;1.13;;
45893;SDS011;31603;51.148;16.932;2023-01-04T23:50:15;1.25;;;0.60;;
45893;SDS011;31603;51.148;16.932;2023-01-04T23:53:11;0.77;;;0.50;;
45893;SDS011;31603;51.148;16.932;2023-01-04T23:55:44;0.90;;;0.40;;
45893;SDS011;31603;51.148;16.932;2023-01-04T23:58:42;1.02;;;0.30;;
